Time;durP1;ratioP1;P1;durP2;ratioP2;P2;SDS_P1;SDS_P2;PMS_P1;PMS_P2;Temp;Humidity;BMP_temperature;BMP_pressure;BME280_temperature;BME280_humidity;BME280_pressure;Samples;Min_cycle;Max_cycle;Signal;HPM_P1;HPM_P2
2021/01/03 00:02:37;;;;;;;3.13;1.50;;;;;;;-0.63;100.00;100128.97;5023550;28;20057;-79
2021/01/03 00:05:40;;;;;;;4.38;2.05;;;;;;;-0.74;100.00;100119.22;5013639;28;20053;-79
2021/01/03 00:08:44;;;;;;;4.78;2.53;;;;;;;-0.78;100.00;100121.97;5009112;28;20057;-78
2021/01/03 00:11:47;;;;;;;2.38;2.28;;;;;;;-0.79;100.00;100123.13;4993948;28;20053;-79
2021/01/03 00:14:50;;;;;;;3.40;1.83;;;;;;;-0.76;100.00;100123.09;4993376;28;20069;-80
2021/01/03 00:17:54;;;;;;;4.72;2.45;;;;;;;-0.82;100.00;100123.88;4993465;28;20072;-77
2021/01/03 00:20:58;;;;;;;2.15;1.85;;;;;;;-0.81;100.00;100125.47;4993767;28;20049;-78
2021/01/03 00:24:01;;;;;;;10.95;2.50;;;;;;;-0.75;100.00;100129.34;4993507;28;20050;-78
2021/01/03 00:27:05;;;;;;;4.40;2.95;;;;;;;-0.76;100.00;100127.81;4994146;28;20046;-77
2021/01/03 00:30:13;;;;;;;2.08;1.80;;;;;;;-0.83;100.00;100131.34;4993732;28;20057;-77
2021/01/03 00:33:16;;;;;;;4.28;2.63;;;;;;;-0.86;100.00;100125.84;4993868;28;20099;-77
2021/01/03 00:36:20;;;;;;;4.35;3.05;;;;;;;-0.89;100.00;100130.13;4993500;28;20057;-77
2021/01/03 00:39:23;;;;;;;4.00;2.67;;;;;;;-0.89;100.00;100127.41;4993504;28;20506;-77
2021/01/03 00:42:27;;;;;;;2.60;2.40;;;;;;;-0.94;100.00;100116.88;4993309;28;20053;-77
2021/01/03 00:45:30;;;;;;;4.93;1.80;;;;;;;-0.87;100.00;100118.84;4992901;28;20057;-78
2021/01/03 00:48:34;;;;;;;6.45;1.70;;;;;;;-0.87;100.00;100122.31;4993255;28;20054;-78
2021/01/03 00:51:37;;;;;;;6.53;2.97;;;;;;;-0.88;100.00;100123.53;4993481;28;20049;-77
2021/01/03 00:54:41;;;;;;;7.97;2.55;;;;;;;-0.85;100.00;100124.69;4993053;28;20069;-78
2021/01/03 00:57:44;;;;;;;4.60;1.98;;;;;;;-0.79;100.00;100128.59;4993029;28;20725;-78
2021/01/03 01:00:47;;;;;;;3.70;1.73;;;;;;;-0.76;100.00;100127.81;4993055;28;20403;-77
2021/01/03 01:03:51;;;;;;;1.88;1.77;;;;;;;-0.74;100.00;100122.72;4992810;28;20060;-78
2021/01/03 01:06:54;;;;;;;6.60;2.47;;;;;;;-0.70;100.00;100119.97;4992622;28;20054;-77
2021/01/03 01:09:58;;;;;;;0.77;0.75;;;;;;;-0.73;100.00;100121.53;5007828;28;20073;-77
2021/01/03 01:13:01;;;;;;;5.63;1.95;;;;;;;-0.79;100.00;100117.66;5012586;28;20406;-78
2021/01/03 01:16:09;;;;;;;5.10;2.08;;;;;;;-0.87;100.00;100113.38;5012769;28;20053;-78
2021/01/03 01:19:13;;;;;;;3.70;2.42;;;;;;;-0.92;100.00;100121.97;5012121;28;20069;-78
2021/01/03 01:22:17;;;;;;;1.52;1.15;;;;;;;-0.81;100.00;100120.78;5012600;28;20421;-78
2021/01/03 01:25:25;;;;;;;1.30;1.20;;;;;;;-0.74;100.00;100125.47;5012726;28;20053;-78
2021/01/03 01:28:28;;;;;;;2.95;1.33;;;;;;;-0.60;100.00;100125.44;5012348;28;20064;-77
2021/01/03 01:31:32;;;;;;;3.53;1.38;;;;;;;-0.50;100.00;100124.66;4999970;28;20053;-78
2021/01/03 01:34:35;;;;;;;6.05;2.25;;;;;;;-0.44;100.00;100123.06;5012225;28;20520;-78
2021/01/03 01:37:39;;;;;;;3.75;1.67;;;;;;;-0.35;100.00;100120.69;5011942;28;20052;-78
2021/01/03 01:40:43;;;;;;;4.47;3.30;;;;;;;-0.28;100.00;100126.13;5012655;28;20049;-77
2021/01/03 01:43:46;;;;;;;2.60;1.92;;;;;;;-0.25;100.00;100128.06;5015564;28;20251;-77
2021/01/03 01:47:05;;;;;;;1.75;1.50;;;;;;;-0.16;100.00;100128.44;5011677;28;20049;-78
2021/01/03 01:50:14;;;;;;;1.90;1.65;;;;;;;-0.11;100.00;100122.53;5011959;28;20110;-78
2021/01/03 01:53:34;;;;;;;4.30;2.42;;;;;;;-0.03;100.00;100126.03;5012009;28;20053;-78
2021/01/03 01:56:57;;;;;;;5.55;2.63;;;;;;;-0.08;100.00;100129.19;5011946;28;20501;-78
2021/01/03 02:00:10;;;;;;;6.88;1.73;;;;;;;-0.17;100.00;100129.59;5012203;28;20056;-77
2021/01/03 02:03:21;;;;;;;2.28;1.02;;;;;;;-0.26;100.00;100131.97;5011940;28;20517;-78
2021/01/03 02:06:32;;;;;;;3.10;1.77;;;;;;;-0.29;100.00;100132.78;5011974;28;20053;-78
2021/01/03 02:09:57;;;;;;;7.28;2.65;;;;;;;-0.40;100.00;100129.28;4999852;28;20050;-77
2021/01/03 02:13:04;;;;;;;1.38;1.38;;;;;;;-0.47;100.00;100145.72;4991982;28;20054;-77
2021/01/03 02:16:21;;;;;;;1.73;0.85;;;;;;;-0.39;100.00;100143.75;4992362;28;20565;-79
2021/01/03 02:19:25;;;;;;;1.55;0.75;;;;;;;-0.34;100.00;100146.84;4994238;28;20057;-79
2021/01/03 02:22:42;;;;;;;8.90;1.48;;;;;;;-0.32;100.00;100147.25;4994676;28;20058;-80
2021/01/03 02:25:46;;;;;;;1.40;1.30;;;;;;;-0.41;100.00;100138.66;4995430;28;20061;-81
2021/01/03 02:28:51;;;;;;;2.47;1.20;;;;;;;-0.49;100.00;100136.34;4983703;28;20061;-81
2021/01/03 02:31:59;;;;;;;1.55;1.45;;;;;;;-0.54;100.00;100140.25;4995871;28;20053;-80
2021/01/03 02:35:06;;;;;;;1.75;1.30;;;;;;;-0.64;100.00;100141.06;4996067;28;20053;-80
2021/01/03 02:38:12;;;;;;;3.05;1.15;;;;;;;-0.69;100.00;100143.44;4983713;28;20077;-81
2021/01/03 02:41:18;;;;;;;9.57;1.98;;;;;;;-0.81;100.00;100141.88;4995204;28;20049;-81
2021/01/03 02:44:22;;;;;;;1.83;1.70;;;;;;;-0.82;100.00;100141.06;4983748;28;20049;-82
2021/01/03 02:47:29;;;;;;;1.63;1.25;;;;;;;-0.86;100.00;100144.97;4983654;28;20049;-81
2021/01/03 02:50:33;;;;;;;2.85;2.13;;;;;;;-0.87;100.00;100143.44;4983702;28;20432;-81
2021/01/03 02:53:37;;;;;;;1.90;1.55;;;;;;;-0.90;100.00;100141.47;4995428;28;20403;-78
2021/01/03 02:56:40;;;;;;;3.75;0.70;;;;;;;-0.95;100.00;100131.72;4995215;28;20054;-78
2021/01/03 02:59:44;;;;;;;1.88;0.73;;;;;;;-0.87;100.00;100137.97;4995238;28;20057;-78
2021/01/03 03:02:48;;;;;;;1.85;0.75;;;;;;;-0.91;100.00;100126.25;4994664;28;20418;-78
2021/01/03 03:05:51;;;;;;;0.93;0.85;;;;;;;-0.94;100.00;100132.50;4982619;28;20053;-78
2021/01/03 03:08:55;;;;;;;1.30;1.23;;;;;;;-0.92;100.00;100141.09;4988678;28;20057;-80
2021/01/03 03:11:58;;;;;;;0.80;0.80;;;;;;;-0.92;100.00;100130.16;5015006;28;20068;-78
2021/01/03 03:15:07;;;;;;;0.10;0.10;;;;;;;-0.93;100.00;100128.59;5000490;28;20073;-80
2021/01/03 03:18:10;;;;;;;0.95;0.95;;;;;;;-0.95;100.00;100136.38;4983164;28;20049;-79
2021/01/03 03:21:18;;;;;;;1.20;0.60;;;;;;;-0.97;100.00;100145.00;5009687;28;20060;-79
2021/01/03 03:24:23;;;;;;;1.08;0.98;;;;;;;-0.96;100.00;100141.09;5014474;28;20052;-79
2021/01/03 03:27:26;;;;;;;1.05;0.95;;;;;;;-0.85;100.00;100136.41;5014386;28;20056;-79
2021/01/03 03:30:29;;;;;;;2.70;1.17;;;;;;;-0.66;100.00;100148.88;5013685;28;20057;-79
2021/01/03 03:33:33;;;;;;;0.57;0.55;;;;;;;-0.52;100.00;100142.63;4999001;28;20073;-79
2021/01/03 03:36:36;;;;;;;2.22;0.77;;;;;;;-0.52;100.00;100140.63;4994678;28;20057;-79
2021/01/03 03:39:40;;;;;;;2.20;0.57;;;;;;;-0.53;100.00;100139.09;4994855;28;20411;-79
2021/01/03 03:42:44;;;;;;;0.40;0.40;;;;;;;-0.46;100.00;100144.56;4995340;28;20050;-79
2021/01/03 03:45:47;;;;;;;2.28;1.45;;;;;;;-0.46;100.00;100144.56;4995958;28;20517;-79
2021/01/03 03:48:50;;;;;;;0.80;0.80;;;;;;;-0.36;100.00;100146.47;4997336;28;20050;-80
2021/01/03 03:51:55;;;;;;;1.58;0.70;;;;;;;-0.33;100.00;100144.91;4997047;28;20395;-80
2021/01/03 03:54:58;;;;;;;0.52;0.52;;;;;;;-0.36;100.00;100141.00;4996264;28;20521;-80
2021/01/03 03:58:01;;;;;;;2.05;0.50;;;;;;;-0.36;100.00;100146.47;4996662;28;20058;-79
2021/01/03 04:01:06;;;;;;;0.85;0.52;;;;;;;-0.34;100.00;100144.13;4997301;28;20057;-79
2021/01/03 04:04:11;;;;;;;4.43;1.35;;;;;;;-0.33;100.00;100144.91;4997017;28;20049;-80
2021/01/03 04:07:15;;;;;;;4.05;0.55;;;;;;;-0.29;100.00;100149.19;4996075;28;20062;-81
2021/01/03 04:10:20;;;;;;;3.10;1.67;;;;;;;-0.29;100.00;100138.25;5014574;28;20402;-80
2021/01/03 04:13:23;;;;;;;0.43;0.43;;;;;;;-0.28;100.00;100148.00;5016277;28;20513;-79
2021/01/03 04:16:26;;;;;;;0.85;0.85;;;;;;;-0.23;100.00;100149.56;5015413;28;20065;-79
2021/01/03 04:19:30;;;;;;;2.75;1.27;;;;;;;-0.21;100.00;100150.72;5014804;28;20410;-78
2021/01/03 04:22:34;;;;;;;1.45;1.23;;;;;;;-0.23;100.00;100144.09;5015708;28;20068;-80
2021/01/03 04:25:38;;;;;;;3.10;0.98;;;;;;;-0.23;100.00;100144.88;5015101;28;20049;-80
2021/01/03 04:28:42;;;;;;;3.50;0.30;;;;;;;-0.21;100.00;100148.00;5015300;28;20053;-80
2021/01/03 04:31:45;;;;;;;0.93;0.88;;;;;;;-0.18;100.00;100157.38;5015926;28;20434;-80
2021/01/03 04:34:49;;;;;;;3.60;1.55;;;;;;;-0.18;100.00;100158.16;5014516;28;20049;-79
2021/01/03 04:37:54;;;;;;;0.65;0.65;;;;;;;-0.17;100.00;100158.91;5014863;28;20617;-80
2021/01/03 04:40:58;;;;;;;0.70;0.70;;;;;;;-0.16;100.00;100155.81;5015322;28;20505;-80
2021/01/03 04:44:08;;;;;;;0.63;0.40;;;;;;;-0.16;100.00;100155.81;5013782;28;20057;-80
2021/01/03 04:47:23;;;;;;;1.23;0.80;;;;;;;-0.14;100.00;100156.19;5014423;28;20053;-80
2021/01/03 04:50:45;;;;;;;2.28;1.48;;;;;;;-0.16;100.00;100158.53;5014330;28;20081;-80
2021/01/03 04:54:04;;;;;;;;;;;;;;;-0.12;100.00;100151.09;5014798;28;20505;-79
2021/01/03 04:57:10;;;;;;;2.80;1.33;;;;;;;-0.06;100.00;100143.25;5013771;28;19917;-79
2021/01/03 05:00:16;;;;;;;1.52;1.17;;;;;;;-0.03;100.00;100147.94;5014256;28;20068;-79
2021/01/03 05:03:41;;;;;;;3.00;0.88;;;;;;;0.00;100.00;100158.88;5013299;28;20069;-79
2021/01/03 05:06:51;;;;;;;0.50;0.45;;;;;;;0.00;100.00;100153.38;5013233;28;20061;-79
2021/01/03 05:10:11;;;;;;;2.83;0.50;;;;;;;-0.04;100.00;100154.56;4999314;28;20066;-80
2021/01/03 05:14:01;;;;;;;0.70;0.70;;;;;;;-0.08;100.00;100162.81;4993465;28;20066;-79
2021/01/03 05:17:04;;;;;;;0.32;0.32;;;;;;;-0.13;100.00;100156.97;4940010;28;20059;-79
2021/01/03 05:20:09;;;;;;;2.10;0.68;;;;;;;-0.13;100.00;100160.47;4994947;28;20065;-79
2021/01/03 05:23:18;;;;;;;5.88;1.30;;;;;;;-0.13;100.00;100160.47;4993835;28;20049;-79
2021/01/03 05:26:28;;;;;;;1.63;1.52;;;;;;;-0.09;100.00;100166.72;4994140;28;20077;-79
2021/01/03 05:29:32;;;;;;;0.35;0.35;;;;;;;-0.04;100.00;100160.06;4993407;28;20053;-79
2021/01/03 05:32:36;;;;;;;0.38;0.38;;;;;;;-0.02;100.00;100161.22;4993277;28;20053;-79
2021/01/03 05:35:42;;;;;;;4.97;0.57;;;;;;;-0.02;100.00;100166.69;4993066;28;20053;-79
2021/01/03 05:38:46;;;;;;;2.05;0.80;;;;;;;-0.01;100.00;100168.28;4993096;28;20509;-79
2021/01/03 05:42:00;;;;;;;2.50;0.40;;;;;;;-0.06;100.00;100160.47;4992901;28;20058;-79
2021/01/03 05:45:03;;;;;;;3.38;1.30;;;;;;;-0.10;100.00;100159.69;4993322;28;20057;-79
2021/01/03 05:48:07;;;;;;;1.20;1.08;;;;;;;-0.10;100.00;100165.16;4992728;28;20069;-79
2021/01/03 05:51:46;;;;;;;2.63;0.82;;;;;;;-0.11;100.00;100163.59;4992986;28;20414;-79
2021/01/03 05:54:52;;;;;;;0.38;0.38;;;;;;;-0.09;100.00;100155.75;4995492;28;20053;-79
2021/01/03 05:58:12;;;;;;;1.10;0.60;;;;;;;-0.09;100.00;100161.25;4996754;28;20061;-81
2021/01/03 06:01:19;;;;;;;0.35;0.35;;;;;;;-0.11;100.00;100166.34;4997031;28;20058;-80
2021/01/03 06:04:23;;;;;;;5.13;1.00;;;;;;;-0.15;100.00;100162.03;4984757;28;20513;-79
2021/01/03 06:07:28;;;;;;;0.50;0.40;;;;;;;-0.21;100.00;100158.94;4996553;28;20061;-80
2021/01/03 06:10:35;;;;;;;0.30;0.30;;;;;;;-0.26;100.00;100167.53;5003432;28;20072;-80
2021/01/03 06:13:51;;;;;;;0.28;0.28;;;;;;;-0.31;100.00;100167.97;5016423;28;20068;-81
2021/01/03 06:17:04;;;;;;;0.65;0.60;;;;;;;-0.30;100.00;100166.78;5004012;28;20057;-81
2021/01/03 06:20:30;;;;;;;1.70;0.90;;;;;;;-0.26;100.00;100173.03;5016261;28;20056;-80
2021/01/03 06:23:36;;;;;;;1.23;0.95;;;;;;;-0.11;100.00;100169.06;5014465;28;20449;-80
2021/01/03 06:27:04;;;;;;;0.52;0.50;;;;;;;-0.14;100.00;100180.81;4996208;28;20410;-80
2021/01/03 06:30:13;;;;;;;0.47;0.47;;;;;;;-0.18;100.00;100185.53;4996160;28;20414;-79
2021/01/03 06:33:34;;;;;;;1.67;0.75;;;;;;;-0.23;100.00;100185.94;4996131;28;20050;-84
2021/01/03 06:36:44;;;;;;;0.50;0.50;;;;;;;-0.27;100.00;100193.38;4996466;28;20056;-80
2021/01/03 06:40:06;;;;;;;0.57;0.52;;;;;;;-0.32;100.00;100190.22;4996402;28;20077;-88
2021/01/03 06:43:37;;;;;;;0.40;0.40;;;;;;;-0.45;100.00;100198.06;4984085;28;20089;-84
2021/01/03 06:46:59;;;;;;;6.37;0.97;;;;;;;-0.53;100.00;100182.84;4984659;28;20066;-83
2021/01/03 06:50:35;;;;;;;0.82;0.82;;;;;;;-0.44;100.00;100191.44;4996129;28;20299;-82
2021/01/03 06:54:01;;;;;;;0.65;0.65;;;;;;;-0.45;100.00;100195.34;4995018;28;20061;-82
2021/01/03 06:57:20;;;;;;;1.38;1.27;;;;;;;-0.51;100.00;100199.66;4996111;28;20053;-84
2021/01/03 07:00:26;;;;;;;1.30;0.68;;;;;;;-0.48;100.00;100196.16;4984171;28;20507;-85
2021/01/03 07:03:34;;;;;;;0.35;0.35;;;;;;;-0.52;100.00;100211.75;4995494;28;20061;-85
2021/01/03 07:06:39;;;;;;;5.47;0.85;;;;;;;-0.50;100.00;100208.66;4995960;28;20085;-84
2021/01/03 07:10:01;;;;;;;3.65;1.40;;;;;;;-0.55;100.00;100209.81;4996270;28;20052;-85
2021/01/03 07:13:25;;;;;;;0.90;0.35;;;;;;;-0.63;100.00;100211.00;5015897;28;20053;-85
2021/01/03 07:16:56;;;;;;;2.30;1.20;;;;;;;-0.69;100.00;100209.81;5015679;28;20053;-82
2021/01/03 07:20:04;;;;;;;2.70;0.73;;;;;;;-0.72;100.00;100210.63;5013774;28;20057;-80
2021/01/03 07:23:17;;;;;;;0.80;0.80;;;;;;;-0.64;100.00;100209.44;5002584;28;20548;-81
2021/01/03 07:26:30;;;;;;;1.10;0.65;;;;;;;-0.59;100.00;100209.03;5015317;28;20061;-81
2021/01/03 07:29:33;;;;;;;0.50;0.50;;;;;;;-0.53;100.00;100202.00;5014660;28;20402;-81
2021/01/03 07:32:37;;;;;;;4.72;1.52;;;;;;;-0.51;100.00;100205.13;5014640;28;20061;-81
2021/01/03 07:35:42;;;;;;;0.38;0.38;;;;;;;-0.53;100.00;100202.00;5014721;28;20390;-80
2021/01/03 07:39:06;;;;;;;0.95;0.68;;;;;;;-0.53;100.00;100215.69;5012918;28;20076;-81
2021/01/03 07:42:24;;;;;;;0.32;0.25;;;;;;;-0.48;100.00;100215.28;5023621;28;20065;-81
2021/01/03 07:45:40;;;;;;;0.95;0.82;;;;;;;-0.44;100.00;100215.28;5013235;28;20050;-80
2021/01/03 07:48:44;;;;;;;0.30;0.30;;;;;;;-0.35;100.00;100221.13;5000672;28;20068;-80
2021/01/03 07:51:47;;;;;;;0.93;0.93;;;;;;;-0.35;100.00;100218.41;5000805;28;20057;-82
2021/01/03 07:54:53;;;;;;;9.50;3.55;;;;;;;-0.25;100.00;100228.53;5014281;28;20405;-80
2021/01/03 07:58:03;;;;;;;3.63;1.17;;;;;;;-0.24;100.00;100225.41;5013740;28;20636;-81
2021/01/03 08:01:15;;;;;;;6.57;1.35;;;;;;;-0.25;100.00;100223.84;5014051;28;20072;-81
2021/01/03 08:04:29;;;;;;;16.45;4.05;;;;;;;-0.21;100.00;100224.63;5014161;28;20049;-81
2021/01/03 08:07:32;;;;;;;11.35;5.25;;;;;;;-0.19;100.00;100226.97;5012706;28;20050;-81
2021/01/03 08:10:39;;;;;;;7.53;3.15;;;;;;;-0.22;100.00;100223.03;4974769;28;20055;-81
2021/01/03 08:13:45;;;;;;;1.05;0.85;;;;;;;-0.30;100.00;100237.13;4974240;28;20399;-80
2021/01/03 08:16:48;;;;;;;9.27;2.95;;;;;;;-0.34;100.00;100242.63;4987044;28;20057;-81
2021/01/03 08:19:52;;;;;;;16.10;7.40;;;;;;;-0.36;100.00;100236.75;4987351;28;20053;-81
2021/01/03 08:23:27;;;;;;;15.93;5.88;;;;;;;-0.38;100.00;100236.38;4974225;28;20047;-81
2021/01/03 08:26:37;;;;;;;5.63;2.80;;;;;;;-0.52;100.00;100241.84;4993656;28;20046;-81
2021/01/03 08:30:06;;;;;;;2.20;1.45;;;;;;;-0.60;100.00;100243.03;4999068;28;20069;-81
2021/01/03 08:33:30;;;;;;;4.75;2.38;;;;;;;-0.68;100.00;100244.19;4983325;28;20058;-81
2021/01/03 08:36:36;;;;;;;2.08;1.90;;;;;;;-0.77;100.00;100258.25;4988418;28;20061;-81
2021/01/03 08:39:40;;;;;;;3.75;1.55;;;;;;;-0.84;100.00;100258.25;5000765;28;20061;-81
2021/01/03 08:42:51;;;;;;;0.68;0.63;;;;;;;-0.85;100.00;100261.38;4999779;28;20418;-78
2021/01/03 08:46:03;;;;;;;0.40;0.40;;;;;;;-0.78;100.00;100261.38;4993560;28;20061;-80
2021/01/03 08:49:10;;;;;;;0.90;0.82;;;;;;;-0.75;100.00;100268.78;4993127;28;20394;-80
2021/01/03 08:52:15;;;;;;;0.73;0.73;;;;;;;-0.70;100.00;100267.63;4993483;28;20053;-78
2021/01/03 08:55:20;;;;;;;0.90;0.90;;;;;;;-0.62;100.00;100264.50;4993736;28;20061;-82
2021/01/03 08:58:34;;;;;;;2.78;0.77;;;;;;;-0.44;100.00;100270.78;4981078;28;20057;-81
2021/01/03 09:01:38;;;;;;;0.50;0.50;;;;;;;-0.40;100.00;100255.13;4993603;28;20534;-82
2021/01/03 09:04:41;;;;;;;0.20;0.20;;;;;;;-0.37;100.00;100270.75;4993536;28;20510;-82
2021/01/03 09:07:45;;;;;;;0.38;0.32;;;;;;;-0.36;100.00;100272.31;4993757;28;20065;-81
2021/01/03 09:10:49;;;;;;;0.85;0.65;;;;;;;-0.29;100.00;100280.53;4974247;28;20062;-80
2021/01/03 09:14:02;;;;;;;1.05;0.32;;;;;;;-0.26;100.00;100268.03;4973692;28;20058;-81
2021/01/03 09:17:09;;;;;;;0.52;0.52;;;;;;;-0.25;100.00;100275.06;4974085;28;20053;-79
2021/01/03 09:20:30;;;;;;;16.88;2.55;;;;;;;-0.26;100.00;100279.75;4974017;28;20049;-79
2021/01/03 09:23:38;;;;;;;2.10;1.13;;;;;;;-0.27;100.00;100286.41;4973239;28;20054;-78
2021/01/03 09:26:42;;;;;;;5.47;2.35;;;;;;;-0.26;100.00;100282.47;4974243;28;20119;-78
2021/01/03 09:29:45;;;;;;;3.45;1.63;;;;;;;-0.18;100.00;100284.06;4972671;28;20050;-78
2021/01/03 09:32:53;;;;;;;16.42;3.15;;;;;;;-0.17;100.00;100290.28;4973511;28;20057;-78
2021/01/03 09:36:50;;;;;;;1.58;1.38;;;;;;;-0.12;100.00;100279.75;4973682;28;20435;-78
2021/01/03 09:40:22;;;;;;;4.97;1.92;;;;;;;-0.06;100.00;100289.09;4952115;29;20190;-80
2021/01/03 09:43:50;;;;;;;3.40;1.95;;;;;;;-0.05;100.00;100289.91;4957918;28;20070;-82
2021/01/03 09:47:01;;;;;;;2.53;1.63;;;;;;;0.03;100.00;100287.91;4974632;28;20109;-82
2021/01/03 09:50:48;;;;;;;1.95;1.00;;;;;;;0.23;100.00;100300.00;4973799;28;20054;-82
2021/01/03 09:54:15;;;;;;;4.00;1.95;;;;;;;0.24;100.00;100301.59;4952807;29;20062;-85
2021/01/03 09:57:48;;;;;;;6.45;1.45;;;;;;;0.31;100.00;100298.81;4956653;28;20058;-85
2021/01/03 10:00:52;;;;;;;13.85;3.35;;;;;;;0.34;100.00;100292.53;4984867;28;20073;-85
2021/01/03 10:03:56;;;;;;;1.95;1.50;;;;;;;0.31;100.00;100294.13;4973345;28;20053;-82
2021/01/03 10:07:13;;;;;;;7.95;2.45;;;;;;;0.26;100.00;100299.22;4973730;28;20510;-83
2021/01/03 10:10:16;;;;;;;1.88;1.33;;;;;;;0.29;100.00;100306.63;5007289;28;20498;-82
2021/01/03 10:13:21;;;;;;;5.15;1.20;;;;;;;0.23;100.00;100308.22;5012839;28;20501;-82
2021/01/03 10:16:28;;;;;;;1.45;1.30;;;;;;;0.24;100.00;100310.56;5012106;28;20064;-82
2021/01/03 10:19:33;;;;;;;0.35;0.35;;;;;;;0.32;100.00;100319.56;5012296;28;20382;-82
2021/01/03 10:22:44;;;;;;;0.65;0.40;;;;;;;0.33;100.00;100313.69;5012490;28;20040;-83
2021/01/03 10:25:47;;;;;;;0.63;0.63;;;;;;;0.30;100.00;100313.69;5012393;28;20053;-81
2021/01/03 10:28:51;;;;;;;1.23;0.25;;;;;;;0.40;100.00;100304.66;5012472;28;20057;-83
2021/01/03 10:31:55;;;;;;;0.40;0.40;;;;;;;0.47;100.00;100318.34;5012259;28;20057;-81
2021/01/03 10:34:59;;;;;;;1.23;0.40;;;;;;;0.51;100.00;100319.09;5012546;28;20053;-82
2021/01/03 10:38:04;;;;;;;1.55;0.57;;;;;;;0.59;100.00;100315.16;5012286;28;20053;-84
2021/01/03 10:41:07;;;;;;;0.77;0.50;;;;;;;0.70;100.00;100316.69;4998142;28;20060;-83
2021/01/03 10:44:11;;;;;;;1.00;0.75;;;;;;;0.95;100.00;100324.81;5002720;28;20053;-81
2021/01/03 10:47:15;;;;;;;0.90;0.50;;;;;;;1.20;100.00;100328.19;5015758;28;20398;-82
2021/01/03 10:50:21;;;;;;;1.08;0.40;;;;;;;1.41;100.00;100322.56;5014986;28;20053;-81
2021/01/03 10:53:25;;;;;;;4.10;0.75;;;;;;;1.53;100.00;100324.84;5015705;28;20057;-78
2021/01/03 10:56:28;;;;;;;1.27;0.57;;;;;;;1.68;100.00;100319.25;5017334;28;20064;-83
2021/01/03 10:59:32;;;;;;;1.38;0.77;;;;;;;1.80;100.00;100318.78;5028592;28;20053;-85
2021/01/03 11:02:35;;;;;;;0.55;0.55;;;;;;;1.90;100.00;100328.88;5017748;28;20048;-84
2021/01/03 11:05:39;;;;;;;1.27;0.60;;;;;;;1.97;100.00;100320.59;5004407;28;20440;-82
2021/01/03 11:08:42;;;;;;;1.30;0.98;;;;;;;2.05;100.00;100322.06;5013595;28;20053;-86
2021/01/03 11:11:46;;;;;;;2.17;1.27;;;;;;;2.09;100.00;100328.31;4985467;28;20509;-84
2021/01/03 11:14:49;;;;;;;2.08;0.82;;;;;;;2.15;100.00;100340.41;4999361;28;20061;-85
2021/01/03 11:17:53;;;;;;;0.85;0.50;;;;;;;2.16;100.00;100334.53;5000199;28;20501;-85
2021/01/03 11:20:57;;;;;;;1.45;0.55;;;;;;;2.20;100.00;100334.50;4999754;28;20061;-86
2021/01/03 11:24:01;;;;;;;0.82;0.73;;;;;;;2.26;100.00;100332.84;4987817;28;20062;-86
2021/01/03 11:27:08;;;;;;;0.30;0.30;;;;;;;2.29;100.00;100329.31;5002098;28;20060;-86
2021/01/03 11:30:12;;;;;;;0.43;0.40;;;;;;;2.37;100.00;100336.28;4999908;28;20057;-85
2021/01/03 11:33:16;;;;;;;0.65;0.30;;;;;;;2.40;100.00;100337.44;4991139;28;20053;-86
2021/01/03 11:36:19;;;;;;;1.45;0.30;;;;;;;2.40;100.00;100332.72;5003009;28;20061;-86
2021/01/03 11:39:24;;;;;;;1.13;0.85;;;;;;;2.40;100.00;100329.97;4989892;28;20053;-87
2021/01/03 11:42:30;;;;;;;0.80;0.28;;;;;;;2.36;100.00;100329.22;4984379;28;20049;-86
2021/01/03 11:45:34;;;;;;;2.08;0.73;;;;;;;2.20;100.00;100323.50;4983153;28;20077;-84
2021/01/03 11:48:37;;;;;;;2.30;0.90;;;;;;;2.11;100.00;100329.47;5005978;28;20061;-84
2021/01/03 11:51:47;;;;;;;0.38;0.20;;;;;;;2.01;100.00;100329.56;5002194;28;20069;-86
2021/01/03 11:54:50;;;;;;;0.65;0.57;;;;;;;1.85;100.00;100334.78;5004990;28;20112;-86
2021/01/03 11:57:54;;;;;;;0.35;0.30;;;;;;;1.80;100.00;100332.50;5009302;28;20052;-85
2021/01/03 12:00:57;;;;;;;2.30;0.90;;;;;;;1.77;100.00;100327.81;4992118;28;20057;-86
2021/01/03 12:04:01;;;;;;;0.68;0.68;;;;;;;1.79;100.00;100319.94;5004551;28;20053;-83
2021/01/03 12:07:07;;;;;;;0.30;0.30;;;;;;;1.82;100.00;100319.16;5009778;28;20510;-83
2021/01/03 12:10:11;;;;;;;0.93;0.35;;;;;;;1.88;100.00;100320.28;4999179;28;20061;-83
2021/01/03 12:13:15;;;;;;;0.80;0.43;;;;;;;1.91;100.00;100313.94;4996149;28;20505;-82
2021/01/03 12:16:30;;;;;;;0.77;0.70;;;;;;;1.96;100.00;100319.00;4998241;28;20061;-79
2021/01/03 12:19:34;;;;;;;0.82;0.63;;;;;;;1.96;100.00;100314.31;4994133;28;20081;-77
2021/01/03 12:22:38;;;;;;;0.38;0.38;;;;;;;1.92;100.00;100302.56;4994094;28;20053;-79
2021/01/03 12:25:41;;;;;;;0.40;0.10;;;;;;;1.87;100.00;100304.97;4994071;28;20506;-79
2021/01/03 12:28:45;;;;;;;2.00;0.47;;;;;;;1.79;100.00;100306.22;4992973;28;20053;-79
2021/01/03 12:31:58;;;;;;;1.65;0.80;;;;;;;1.76;100.00;100296.03;4993979;28;20138;-79
2021/01/03 12:35:01;;;;;;;1.15;0.52;;;;;;;1.72;100.00;100292.53;4992875;28;20046;-80
2021/01/03 12:38:04;;;;;;;3.53;1.95;;;;;;;1.65;100.00;100298.09;4993293;28;20057;-79
2021/01/03 12:41:08;;;;;;;4.03;0.85;;;;;;;1.67;100.00;100306.72;4994208;28;20506;-79
2021/01/03 12:44:12;;;;;;;0.63;0.60;;;;;;;1.61;100.00;100302.81;4993642;28;20057;-79
2021/01/03 12:47:17;;;;;;;0.63;0.63;;;;;;;1.61;100.00;100300.09;4993825;28;20057;-79
2021/01/03 12:50:22;;;;;;;1.55;0.80;;;;;;;1.64;100.00;100299.28;4993712;28;20057;-79
2021/01/03 12:53:26;;;;;;;1.10;0.63;;;;;;;1.63;100.00;100301.25;4993175;28;20054;-79
2021/01/03 12:56:30;;;;;;;1.35;0.90;;;;;;;1.69;100.00;100298.88;4993447;28;20053;-79
2021/01/03 12:59:33;;;;;;;4.45;0.70;;;;;;;1.72;100.00;100304.31;4993453;28;20053;-79
2021/01/03 13:02:37;;;;;;;0.63;0.63;;;;;;;1.70;100.00;100301.19;4993218;28;20062;-79
2021/01/03 13:05:40;;;;;;;2.72;0.60;;;;;;;1.79;100.00;100303.47;4993352;28;20687;-79
2021/01/03 13:08:43;;;;;;;0.57;0.25;;;;;;;1.92;100.00;100301.78;4997128;28;20057;-79
2021/01/03 13:11:50;;;;;;;0.47;0.47;;;;;;;1.97;100.00;100306.84;5012150;28;20406;-79
2021/01/03 13:14:54;;;;;;;0.45;0.45;;;;;;;2.12;100.00;100302.78;5012833;28;20053;-79
2021/01/03 13:17:57;;;;;;;1.08;0.80;;;;;;;2.27;100.00;100304.19;5012823;28;20061;-78
2021/01/03 13:21:01;;;;;;;3.40;0.40;;;;;;;2.20;100.00;100307.00;5013034;28;20065;-80
2021/01/03 13:24:05;;;;;;;3.00;0.88;;;;;;;2.14;100.00;100297.66;5011911;28;20410;-79
2021/01/03 13:27:09;;;;;;;1.70;1.20;;;;;;;2.00;100.00;100298.56;4996600;28;20049;-79
2021/01/03 13:30:12;;;;;;;3.60;1.05;;;;;;;2.05;100.00;100292.66;4991941;28;20050;-82
2021/01/03 13:33:15;;;;;;;1.60;0.85;;;;;;;2.10;100.00;100302.41;5006116;28;20509;-82
2021/01/03 13:36:21;;;;;;;0.30;0.30;;;;;;;2.08;100.00;100304.78;5011743;28;20057;-82
2021/01/03 13:39:25;;;;;;;0.50;0.50;;;;;;;2.10;100.00;100302.41;5011170;28;20424;-83
2021/01/03 13:42:28;;;;;;;0.93;0.75;;;;;;;2.11;100.00;100304.75;5011897;28;20056;-82
2021/01/03 13:45:31;;;;;;;0.40;0.40;;;;;;;2.14;100.00;100301.16;4996799;28;20510;-82
2021/01/03 13:48:36;;;;;;;4.78;1.20;;;;;;;2.17;100.00;100299.56;4992696;28;20046;-83
2021/01/03 13:51:39;;;;;;;1.60;0.38;;;;;;;2.32;100.00;100290.00;4992559;28;20446;-82
2021/01/03 13:54:43;;;;;;;1.42;1.25;;;;;;;2.54;100.00;100299.56;4991648;28;20507;-83
2021/01/03 13:57:46;;;;;;;1.65;0.50;;;;;;;2.73;100.00;100318.19;4991734;28;20058;-83
2021/01/03 14:00:50;;;;;;;1.48;1.05;;;;;;;2.84;100.00;100310.59;4991718;28;20526;-83
2021/01/03 14:03:53;;;;;;;0.47;0.47;;;;;;;2.90;100.00;100317.19;4991853;28;20053;-82
2021/01/03 14:06:57;;;;;;;0.77;0.60;;;;;;;2.96;100.00;100315.56;4980059;28;20499;-83
2021/01/03 14:10:00;;;;;;;1.88;0.82;;;;;;;3.00;100.00;100316.28;4991662;28;20062;-83
2021/01/03 14:13:03;;;;;;;0.82;0.55;;;;;;;3.00;100.00;100321.78;4991396;28;20419;-83
2021/01/03 14:16:07;;;;;;;6.03;1.55;;;;;;;2.95;100.00;100314.00;4994525;28;20061;-83
2021/01/03 14:19:11;;;;;;;2.05;1.17;;;;;;;2.99;100.00;100320.22;4995638;28;20057;-83
2021/01/03 14:22:14;;;;;;;1.25;0.90;;;;;;;2.96;100.00;100325.78;5011975;28;20065;-83
2021/01/03 14:25:25;;;;;;;2.25;1.15;;;;;;;2.91;100.00;100318.75;5014983;28;20049;-83
2021/01/03 14:28:28;;;;;;;6.25;1.73;;;;;;;2.91;100.00;100313.25;5015198;28;20061;-83